createdAt,value
2018-09-01T00:00:03.407Z,20.21
2018-09-01T00:00:34.585Z,20.17
2018-09-01T00:01:05.769Z,20.13
2018-09-01T00:01:36.969Z,20.11
2018-09-01T00:02:08.148Z,20.13
2018-09-01T00:02:39.267Z,20.13
2018-09-01T00:03:10.472Z,20.13
2018-09-01T00:03:41.588Z,20.13
2018-09-01T00:04:12.759Z,20.14
2018-09-01T00:04:43.927Z,20.15
2018-09-01T00:05:15.044Z,20.17
2018-09-01T00:05:46.162Z,20.18
2018-09-01T00:06:17.275Z,20.17
2018-09-01T00:06:48.452Z,20.16
2018-09-01T00:07:19.596Z,20.16
2018-09-01T00:07:50.772Z,20.14
2018-09-01T00:08:21.945Z,20.13
2018-09-01T00:08:53.112Z,20.12
2018-09-01T00:09:24.232Z,20.11
2018-09-01T00:09:55.449Z,20.09
2018-09-01T00:10:26.637Z,20.08
2018-09-01T00:10:57.782Z,20.06
2018-09-01T00:11:28.887Z,20.04
2018-09-01T00:12:00.118Z,20.05
2018-09-01T00:12:31.244Z,20.06
2018-09-01T00:13:02.367Z,20.09
2018-09-01T00:13:33.576Z,20.09
2018-09-01T00:14:04.712Z,20.08
2018-09-01T00:14:35.890Z,20.09
2018-09-01T00:15:07.028Z,20.06
2018-09-01T00:15:38.264Z,20.06
2018-09-01T00:16:09.384Z,20.05
2018-09-01T00:16:40.602Z,20.06
2018-09-01T00:17:11.719Z,20.06
2018-09-01T00:17:42.918Z,20.09
2018-09-01T00:18:14.089Z,20.12
2018-09-01T00:18:45.265Z,20.15
2018-09-01T00:19:16.368Z,20.15
2018-09-01T00:19:47.479Z,20.14
2018-09-01T00:20:18.616Z,20.12
2018-09-01T00:20:49.734Z,20.09
2018-09-01T00:21:20.965Z,20.08
2018-09-01T00:21:52.141Z,20.05
2018-09-01T00:22:23.263Z,20.05
2018-09-01T00:22:54.396Z,20.04
2018-09-01T00:23:25.512Z,20.03
2018-09-01T00:23:56.777Z,20.05
2018-09-01T00:24:27.900Z,20.07
2018-09-01T00:24:59.072Z,20.08
2018-09-01T00:25:30.243Z,20.10
2018-09-01T00:26:01.373Z,20.12
2018-09-01T00:26:32.488Z,20.12
2018-09-01T00:27:03.609Z,20.13
2018-09-01T00:27:34.737Z,20.13
2018-09-01T00:28:05.979Z,20.13
2018-09-01T00:28:37.115Z,20.10
2018-09-01T00:29:08.260Z,20.09
2018-09-01T00:29:39.421Z,20.08
2018-09-01T00:30:10.667Z,20.09
2018-09-01T00:30:41.832Z,20.10
2018-09-01T00:31:13.022Z,20.10
2018-09-01T00:31:44.141Z,20.10
2018-09-01T00:32:15.251Z,20.11
2018-09-01T00:32:46.412Z,20.11
2018-09-01T00:33:17.571Z,20.12
2018-09-01T00:33:48.739Z,20.10
2018-09-01T00:34:19.868Z,20.09
2018-09-01T00:34:50.977Z,20.05
2018-09-01T00:35:22.141Z,20.05
2018-09-01T00:35:53.324Z,20.05
2018-09-01T00:36:24.439Z,20.04
2018-09-01T00:36:55.600Z,20.05
2018-09-01T00:37:26.851Z,20.06
2018-09-01T00:37:57.961Z,20.07
2018-09-01T00:38:29.117Z,20.07
2018-09-01T00:39:00.291Z,20.10
2018-09-01T00:39:31.460Z,20.11
2018-09-01T00:40:02.627Z,20.14
2018-09-01T00:40:33.760Z,20.16
2018-09-01T00:41:04.941Z,20.17
2018-09-01T00:41:36.048Z,20.03
2018-09-01T00:42:07.235Z,20.18
2018-09-01T00:42:38.457Z,20.18
2018-09-01T00:43:09.620Z,20.18
2018-09-01T00:43:40.730Z,20.20
2018-09-01T00:44:11.855Z,20.21
2018-09-01T00:44:42.983Z,20.21
2018-09-01T00:45:14.103Z,20.23
2018-09-01T00:45:45.272Z,20.23
2018-09-01T00:46:16.457Z,20.23
2018-09-01T00:46:47.630Z,20.22
2018-09-01T00:47:18.752Z,20.21
2018-09-01T00:47:49.864Z,20.21
2018-09-01T00:48:21.028Z,20.20
2018-09-01T00:48:52.140Z,20.21
2018-09-01T00:49:23.260Z,20.20
2018-09-01T00:49:54.369Z,20.23
2018-09-01T00:50:25.548Z,20.23
2018-09-01T00:50:56.671Z,20.24
2018-09-01T00:51:27.845Z,20.26
2018-09-01T00:51:58.998Z,20.25
2018-09-01T00:52:30.228Z,20.25
2018-09-01T00:53:01.409Z,20.26
2018-09-01T00:53:32.571Z,20.24
2018-09-01T00:54:03.745Z,20.23
2018-09-01T00:54:34.989Z,20.19
2018-09-01T00:55:06.116Z,20.15
2018-09-01T00:55:37.289Z,20.14
2018-09-01T00:56:08.460Z,20.10
2018-09-01T00:56:39.629Z,20.07
2018-09-01T00:57:10.804Z,20.03
2018-09-01T00:57:41.979Z,19.97
2018-09-01T00:58:13.104Z,19.91
2018-09-01T00:58:44.320Z,19.84
2018-09-01T00:59:15.485Z,19.79
2018-09-01T00:59:46.603Z,19.76
2018-09-01T01:00:17.777Z,19.71
2018-09-01T01:00:48.968Z,19.67
2018-09-01T01:01:20.145Z,19.63
2018-09-01T01:01:51.326Z,19.61
2018-09-01T01:02:22.563Z,19.56
2018-09-01T01:02:53.752Z,19.50
2018-09-01T01:03:24.940Z,19.44
2018-09-01T01:03:56.064Z,19.38
2018-09-01T01:04:27.232Z,19.38
2018-09-01T01:04:58.424Z,19.35
2018-09-01T01:05:29.594Z,19.33
2018-09-01T01:06:00.784Z,19.28
2018-09-01T01:06:32.009Z,19.25
2018-09-01T01:07:03.146Z,19.22
2018-09-01T01:07:34.448Z,19.19
2018-09-01T01:08:05.626Z,19.19
2018-09-01T01:08:36.857Z,19.17
2018-09-01T01:09:08.053Z,19.15
2018-09-01T01:09:39.232Z,19.17
2018-09-01T01:10:10.432Z,19.17
2018-09-01T01:10:41.618Z,19.18
2018-09-01T01:11:12.810Z,19.19
2018-09-01T01:11:43.942Z,19.19
2018-09-01T01:12:15.146Z,19.19
2018-09-01T01:12:46.389Z,19.18
2018-09-01T01:13:17.572Z,19.17
2018-09-01T01:13:49.528Z,19.18
2018-09-01T01:14:20.774Z,19.18
2018-09-01T01:14:51.896Z,19.18
2018-09-01T01:15:23.008Z,19.19
2018-09-01T01:15:54.242Z,19.20
2018-09-01T01:16:25.363Z,19.19
2018-09-01T01:16:56.539Z,19.20
2018-09-01T01:17:27.652Z,19.20
2018-09-01T01:17:58.816Z,19.20
2018-09-01T01:18:30.037Z,19.19
2018-09-01T01:19:01.140Z,19.20
2018-09-01T01:19:32.317Z,19.20
2018-09-01T01:20:03.445Z,19.17
2018-09-01T01:20:34.624Z,19.15
2018-09-01T01:21:05.808Z,19.13
2018-09-01T01:21:36.945Z,19.11
2018-09-01T01:22:08.218Z,19.08
2018-09-01T01:22:39.384Z,19.08
2018-09-01T01:23:10.528Z,19.06
2018-09-01T01:23:41.708Z,19.04
2018-09-01T01:24:12.917Z,19.02
2018-09-01T01:24:44.112Z,19.01
2018-09-01T01:25:15.280Z,18.98
2018-09-01T01:25:46.504Z,18.97
2018-09-01T01:26:17.639Z,18.95
2018-09-01T01:26:48.748Z,18.92
2018-09-01T01:27:19.985Z,18.90
2018-09-01T01:27:51.175Z,18.90
2018-09-01T01:28:22.364Z,18.90
2018-09-01T01:28:53.481Z,18.90
2018-09-01T01:29:24.636Z,18.92
2018-09-01T01:29:55.764Z,18.92
2018-09-01T01:30:26.876Z,18.91
2018-09-01T01:30:58.020Z,18.91
2018-09-01T01:31:29.135Z,18.92
2018-09-01T01:32:00.260Z,18.95
2018-09-01T01:32:31.381Z,18.95
2018-09-01T01:33:02.499Z,18.95
2018-09-01T01:33:33.688Z,18.93
2018-09-01T01:34:04.812Z,18.90
2018-09-01T01:34:36.030Z,18.89
2018-09-01T01:35:07.216Z,18.87
2018-09-01T01:35:38.397Z,18.86
2018-09-01T01:36:09.560Z,18.84
2018-09-01T01:36:40.680Z,18.83
2018-09-01T01:37:11.917Z,18.83
2018-09-01T01:37:43.033Z,18.81
2018-09-01T01:38:14.205Z,18.78
2018-09-01T01:38:45.423Z,18.76
2018-09-01T01:39:16.568Z,18.75
2018-09-01T01:39:47.687Z,18.75
2018-09-01T01:40:18.860Z,18.74
2018-09-01T01:40:49.982Z,18.73
2018-09-01T01:41:21.143Z,18.71
2018-09-01T01:41:52.268Z,18.71
2018-09-01T01:42:23.393Z,18.72
2018-09-01T01:42:54.544Z,18.72
2018-09-01T01:43:25.667Z,18.73
2018-09-01T01:43:56.796Z,18.72
2018-09-01T01:44:28.006Z,18.69
2018-09-01T01:44:59.171Z,18.72
2018-09-01T01:45:30.368Z,18.75
2018-09-01T01:46:01.534Z,18.77
2018-09-01T01:46:32.661Z,18.80
2018-09-01T01:47:03.885Z,18.82
2018-09-01T01:47:35.018Z,18.84
2018-09-01T01:48:06.136Z,18.85
2018-09-01T01:48:37.361Z,18.85
2018-09-01T01:49:08.545Z,18.85
2018-09-01T01:49:39.859Z,18.88
2018-09-01T01:50:11.018Z,18.88
2018-09-01T01:50:42.192Z,18.89
2018-09-01T01:51:13.370Z,18.91
2018-09-01T01:51:44.613Z,18.94
2018-09-01T01:52:15.830Z,18.94
2018-09-01T01:52:47.017Z,18.97
2018-09-01T01:53:18.131Z,18.98
2018-09-01T01:53:49.264Z,19.00
2018-09-01T01:54:20.462Z,19.01
2018-09-01T01:54:51.673Z,19.04
2018-09-01T01:55:22.908Z,19.03
2018-09-01T01:55:54.092Z,19.05
2018-09-01T01:56:25.250Z,19.06
2018-09-01T01:56:56.435Z,19.10
2018-09-01T01:57:27.630Z,19.13
2018-09-01T01:57:58.867Z,19.17
2018-09-01T01:58:30.044Z,19.18
2018-09-01T01:59:01.233Z,19.18
2018-09-01T01:59:32.411Z,19.20
2018-09-01T02:00:03.594Z,19.21
2018-09-01T02:00:34.767Z,19.24
2018-09-01T02:01:06.005Z,19.24
2018-09-01T02:01:37.132Z,19.24
2018-09-01T02:02:08.352Z,19.25
2018-09-01T02:02:39.548Z,19.26
2018-09-01T02:03:10.718Z,19.27
2018-09-01T02:03:41.839Z,19.29
2018-09-01T02:04:13.008Z,19.29
2018-09-01T02:04:44.129Z,19.31
2018-09-01T02:05:15.268Z,19.33
2018-09-01T02:05:46.531Z,19.35
2018-09-01T02:06:17.639Z,19.37
2018-09-01T02:06:48.757Z,19.38
2018-09-01T02:07:19.941Z,19.39
2018-09-01T02:07:51.060Z,19.38
2018-09-01T02:08:22.237Z,19.40
2018-09-01T02:08:53.417Z,19.40
2018-09-01T02:09:24.598Z,19.41
2018-09-01T02:09:55.724Z,19.43
2018-09-01T02:10:26.836Z,19.46
2018-09-01T02:10:58.118Z,19.49
2018-09-01T02:11:29.248Z,19.48
2018-09-01T02:12:00.481Z,19.48
2018-09-01T02:12:31.672Z,19.48
2018-09-01T02:13:02.870Z,19.47
2018-09-01T02:13:33.991Z,19.45
2018-09-01T02:14:05.107Z,19.45
2018-09-01T02:14:36.272Z,19.44
2018-09-01T02:15:07.391Z,19.41
2018-09-01T02:15:38.580Z,19.41
2018-09-01T02:16:09.743Z,19.38
2018-09-01T02:16:40.980Z,19.36
2018-09-01T02:17:12.164Z,19.34
2018-09-01T02:17:43.311Z,19.35
2018-09-01T02:18:14.537Z,19.34
2018-09-01T02:18:45.775Z,19.33
2018-09-01T02:19:16.969Z,19.31
2018-09-01T02:19:48.146Z,19.32
2018-09-01T02:20:19.277Z,19.32
2018-09-01T02:20:50.450Z,19.32
2018-09-01T02:21:21.586Z,19.32
2018-09-01T02:21:52.760Z,19.30
2018-09-01T02:22:23.945Z,19.30
2018-09-01T02:22:55.112Z,19.31
2018-09-01T02:23:26.259Z,19.32
2018-09-01T02:23:57.377Z,19.33
2018-09-01T02:24:28.592Z,19.36
2018-09-01T02:24:59.703Z,19.38
2018-09-01T02:25:30.819Z,19.39
2018-09-01T02:26:02.045Z,19.39
2018-09-01T02:26:33.216Z,19.42
2018-09-01T02:27:04.343Z,19.44
2018-09-01T02:27:35.479Z,19.46
2018-09-01T02:28:06.657Z,19.45
2018-09-01T02:28:37.874Z,19.44
2018-09-01T02:29:09.084Z,19.41
2018-09-01T02:29:40.317Z,19.40
2018-09-01T02:30:11.443Z,19.41
2018-09-01T02:30:42.567Z,19.40
2018-09-01T02:31:13.728Z,19.41
2018-09-01T02:31:44.851Z,19.42
2018-09-01T02:32:15.970Z,19.42
2018-09-01T02:32:47.090Z,19.42
2018-09-01T02:33:18.322Z,19.42
2018-09-01T02:33:49.532Z,19.45
2018-09-01T02:34:20.720Z,19.44
2018-09-01T02:34:51.895Z,19.44
2018-09-01T02:35:23.073Z,19.42
2018-09-01T02:35:54.200Z,19.39
2018-09-01T02:36:25.388Z,19.38
2018-09-01T02:36:56.613Z,19.34
2018-09-01T02:37:27.755Z,19.32
2018-09-01T02:37:58.875Z,19.29
2018-09-01T02:38:30.052Z,19.28
2018-09-01T02:39:01.301Z,19.26
2018-09-01T02:39:32.428Z,19.24
2018-09-01T02:40:03.599Z,19.22
2018-09-01T02:40:34.728Z,19.22
2018-09-01T02:41:05.843Z,19.22
2018-09-01T02:41:36.964Z,19.20
2018-09-01T02:42:08.139Z,19.17
2018-09-01T02:42:39.328Z,19.14
2018-09-01T02:43:10.513Z,19.13
2018-09-01T02:43:41.694Z,19.11
2018-09-01T02:44:12.884Z,19.11
2018-09-01T02:44:44.005Z,19.11
2018-09-01T02:45:15.161Z,19.11
2018-09-01T02:45:46.280Z,19.11
2018-09-01T02:46:17.473Z,19.12
2018-09-01T02:46:48.645Z,19.15
2018-09-01T02:47:19.780Z,19.14
2018-09-01T02:47:50.958Z,19.14
2018-09-01T02:48:22.052Z,19.15
2018-09-01T02:48:53.181Z,19.13
2018-09-01T02:49:24.364Z,19.13
2018-09-01T02:49:55.484Z,19.12
2018-09-01T02:50:26.688Z,19.10
2018-09-01T02:50:57.808Z,19.10
2018-09-01T02:51:28.935Z,19.10
2018-09-01T02:52:00.058Z,19.10
2018-09-01T02:52:31.217Z,19.09
2018-09-01T02:53:02.327Z,19.09
2018-09-01T02:53:33.447Z,19.07
2018-09-01T02:54:04.616Z,19.02
2018-09-01T02:54:35.807Z,19.01
2018-09-01T02:55:06.928Z,19.00
2018-09-01T02:55:38.083Z,19.00
2018-09-01T02:56:09.325Z,19.01
2018-09-01T02:56:40.627Z,19.00
2018-09-01T02:57:11.800Z,19.00
2018-09-01T02:57:42.964Z,18.99
2018-09-01T02:58:14.071Z,19.01
2018-09-01T02:58:45.307Z,19.01
2018-09-01T02:59:16.553Z,19.02
2018-09-01T02:59:47.752Z,19.02
2018-09-01T03:00:18.863Z,19.03
2018-09-01T03:00:50.029Z,19.05
2018-09-01T03:01:21.160Z,19.05
2018-09-01T03:01:52.315Z,19.05
2018-09-01T03:02:23.479Z,19.06
2018-09-01T03:02:54.595Z,19.02
2018-09-01T03:03:25.718Z,19.02
2018-09-01T03:03:56.965Z,18.96
2018-09-01T03:04:28.097Z,18.95
2018-09-01T03:04:59.343Z,18.92
2018-09-01T03:05:30.532Z,18.92
2018-09-01T03:06:01.933Z,18.93
2018-09-01T03:06:33.107Z,18.92
2018-09-01T03:07:04.348Z,18.92
2018-09-01T03:07:35.504Z,18.94
2018-09-01T03:08:06.680Z,18.93
2018-09-01T03:08:37.921Z,18.92
2018-09-01T03:09:09.104Z,18.87
2018-09-01T03:09:40.234Z,18.85
2018-09-01T03:10:11.475Z,18.86
2018-09-01T03:10:42.749Z,18.83
2018-09-01T03:11:13.871Z,18.80
2018-09-01T03:11:45.052Z,18.76
2018-09-01T03:12:16.250Z,18.75
2018-09-01T03:12:47.369Z,18.76
2018-09-01T03:13:18.543Z,18.75
2018-09-01T03:13:49.670Z,18.75
2018-09-01T03:14:20.904Z,18.76
2018-09-01T03:14:52.031Z,18.76
2018-09-01T03:15:23.149Z,18.75
2018-09-01T03:15:54.325Z,18.74
2018-09-01T03:16:25.468Z,18.70
2018-09-01T03:16:56.693Z,18.67
2018-09-01T03:17:27.868Z,18.63
2018-09-01T03:17:59.110Z,18.63
2018-09-01T03:18:30.350Z,18.61
2018-09-01T03:19:01.533Z,18.59
2018-09-01T03:19:32.665Z,18.57
2018-09-01T03:20:03.779Z,18.58
2018-09-01T03:20:34.956Z,18.59
2018-09-01T03:21:06.154Z,18.59
2018-09-01T03:21:37.277Z,18.59
2018-09-01T03:22:08.419Z,18.58
2018-09-01T03:22:39.584Z,18.55
2018-09-01T03:23:10.786Z,18.54
2018-09-01T03:23:42.005Z,18.53
2018-09-01T03:24:13.188Z,18.53
2018-09-01T03:24:44.385Z,18.53
2018-09-01T03:25:15.503Z,18.50
2018-09-01T03:25:46.608Z,18.47
2018-09-01T03:26:17.717Z,18.47
2018-09-01T03:26:48.902Z,18.47
2018-09-01T03:27:20.185Z,18.43
2018-09-01T03:27:51.398Z,18.38
2018-09-01T03:28:22.618Z,18.33
2018-09-01T03:28:53.793Z,18.28
2018-09-01T03:29:25.009Z,18.29
2018-09-01T03:29:56.144Z,18.31
2018-09-01T03:30:27.275Z,18.31
2018-09-01T03:30:58.460Z,18.29
2018-09-01T03:31:29.597Z,18.30
2018-09-01T03:32:00.725Z,18.30
2018-09-01T03:32:31.880Z,18.30
2018-09-01T03:33:03.057Z,18.30
2018-09-01T03:33:34.300Z,18.29
2018-09-01T03:34:05.471Z,18.30
2018-09-01T03:34:36.605Z,18.31
2018-09-01T03:35:07.782Z,18.34
2018-09-01T03:35:38.966Z,18.35
2018-09-01T03:36:10.184Z,18.35
2018-09-01T03:36:41.424Z,18.37
2018-09-01T03:37:12.611Z,18.39
2018-09-01T03:37:43.772Z,18.41
2018-09-01T03:38:14.909Z,18.41
2018-09-01T03:38:46.097Z,18.42
2018-09-01T03:39:17.309Z,18.41
2018-09-01T03:39:48.484Z,18.42
2018-09-01T03:40:19.592Z,18.41
2018-09-01T03:40:50.825Z,18.44
2018-09-01T03:41:22.006Z,18.44
2018-09-01T03:41:53.189Z,18.43
2018-09-01T03:42:24.376Z,18.44
2018-09-01T03:42:55.538Z,18.43
2018-09-01T03:43:26.656Z,18.43
2018-09-01T03:43:57.779Z,18.43
2018-09-01T03:44:29.039Z,18.43
2018-09-01T03:45:00.144Z,18.42
2018-09-01T03:45:31.256Z,18.41
2018-09-01T03:46:02.491Z,18.40
2018-09-01T03:46:33.629Z,18.40
2018-09-01T03:47:04.844Z,18.38
2018-09-01T03:47:36.078Z,18.39
2018-09-01T03:48:07.245Z,18.38
2018-09-01T03:48:38.424Z,18.37
2018-09-01T03:49:09.548Z,18.37
2018-09-01T03:49:40.764Z,18.36
2018-09-01T03:50:11.911Z,18.36
2018-09-01T03:50:43.019Z,18.35
2018-09-01T03:51:14.197Z,18.34
2018-09-01T03:51:45.379Z,18.31
2018-09-01T03:52:16.613Z,18.29
2018-09-01T03:52:47.851Z,18.27
2018-09-01T03:53:19.059Z,18.25
2018-09-01T03:53:50.545Z,18.24
2018-09-01T03:54:21.716Z,18.22
2018-09-01T03:54:52.908Z,18.22
2018-09-01T03:55:24.212Z,18.22
2018-09-01T03:55:55.397Z,18.22
2018-09-01T03:56:26.562Z,18.22
2018-09-01T03:56:57.699Z,18.23
2018-09-01T03:57:28.948Z,18.23
2018-09-01T03:58:00.148Z,18.27
2018-09-01T03:58:31.331Z,18.27
2018-09-01T03:59:02.497Z,18.29
2018-09-01T03:59:33.707Z,18.31
2018-09-01T04:00:04.950Z,18.31
2018-09-01T04:00:36.184Z,18.30
2018-09-01T04:01:07.421Z,18.29
2018-09-01T04:01:38.600Z,18.27
2018-09-01T04:02:09.729Z,18.26
2018-09-01T04:02:40.852Z,18.29
2018-09-01T04:03:11.970Z,18.30
2018-09-01T04:03:43.089Z,18.31
2018-09-01T04:04:14.195Z,18.31
2018-09-01T04:04:45.445Z,18.30
2018-09-01T04:05:16.683Z,18.31
2018-09-01T04:05:47.905Z,18.31
2018-09-01T04:06:19.088Z,18.33
2018-09-01T04:06:50.200Z,18.33
2018-09-01T04:07:21.376Z,18.36
2018-09-01T04:07:52.557Z,18.41
2018-09-01T04:08:23.827Z,18.46
2018-09-01T04:08:55.009Z,18.52
2018-09-01T04:09:26.180Z,18.56
2018-09-01T04:09:57.300Z,18.59
2018-09-01T04:10:28.459Z,18.63
2018-09-01T04:10:59.641Z,18.64
2018-09-01T04:11:30.817Z,18.67
2018-09-01T04:12:01.940Z,18.69
2018-09-01T04:12:33.100Z,18.71
2018-09-01T04:13:04.339Z,18.74
2018-09-01T04:13:35.501Z,18.80
2018-09-01T04:14:06.634Z,18.87
2018-09-01T04:14:37.797Z,18.93
2018-09-01T04:15:08.997Z,18.99
2018-09-01T04:15:40.174Z,19.03
2018-09-01T04:16:11.352Z,19.04
2018-09-01T04:16:42.528Z,19.06
2018-09-01T04:17:13.692Z,19.08
2018-09-01T04:17:44.868Z,19.08
2018-09-01T04:18:16.073Z,19.07
2018-09-01T04:18:47.248Z,19.07
2018-09-01T04:19:18.434Z,19.08
2018-09-01T04:19:49.600Z,19.13
2018-09-01T04:20:20.809Z,19.19
2018-09-01T04:20:51.933Z,19.25
2018-09-01T04:21:23.050Z,19.33
2018-09-01T04:21:54.216Z,19.38
2018-09-01T04:22:25.375Z,19.41
2018-09-01T04:22:56.578Z,19.43
2018-09-01T04:23:27.764Z,19.46
2018-09-01T04:23:58.941Z,19.50
2018-09-01T04:24:30.152Z,19.58
2018-09-01T04:25:01.269Z,19.68
2018-09-01T04:25:32.380Z,19.78
2018-09-01T04:26:03.556Z,19.87
2018-09-01T04:26:34.676Z,19.95
2018-09-01T04:27:05.910Z,20.00
2018-09-01T04:27:37.060Z,20.07
2018-09-01T04:28:08.229Z,20.17
2018-09-01T04:28:39.413Z,20.29
2018-09-01T04:29:10.589Z,20.37
2018-09-01T04:29:41.772Z,20.46
2018-09-01T04:30:12.981Z,20.51
2018-09-01T04:30:44.122Z,20.56
2018-09-01T04:31:15.310Z,20.68
2018-09-01T04:31:46.484Z,20.78
2018-09-01T04:32:17.662Z,20.89
2018-09-01T04:32:48.791Z,20.98
2018-09-01T04:33:19.919Z,21.08
2018-09-01T04:33:51.069Z,21.17
2018-09-01T04:34:22.296Z,21.26
2018-09-01T04:34:53.477Z,21.32
2018-09-01T04:35:24.725Z,21.38
2018-09-01T04:35:55.917Z,21.43
2018-09-01T04:36:27.035Z,21.52
2018-09-01T04:36:58.257Z,21.63
2018-09-01T04:37:29.375Z,21.73
2018-09-01T04:38:00.497Z,21.86
2018-09-01T04:38:31.608Z,21.97
2018-09-01T04:39:02.818Z,22.04
2018-09-01T04:39:33.931Z,22.12
2018-09-01T04:40:05.047Z,22.08
2018-09-01T04:40:36.200Z,22.12
2018-09-01T04:41:07.376Z,22.15
2018-09-01T04:41:38.495Z,22.18
2018-09-01T04:42:09.662Z,22.21
2018-09-01T04:42:40.827Z,22.24
2018-09-01T04:43:12.020Z,22.29
2018-09-01T04:43:43.132Z,22.38
2018-09-01T04:44:14.260Z,22.45
2018-09-01T04:44:45.415Z,22.52
2018-09-01T04:45:16.520Z,22.51
2018-09-01T04:45:47.683Z,22.50
2018-09-01T04:46:18.798Z,22.43
2018-09-01T04:46:50.059Z,22.39
2018-09-01T04:47:21.172Z,22.30
2018-09-01T04:47:52.341Z,22.36
2018-09-01T04:48:23.467Z,22.33
2018-09-01T04:48:54.679Z,22.30
2018-09-01T04:49:25.807Z,22.37
2018-09-01T04:49:56.912Z,22.42
2018-09-01T04:50:28.091Z,22.43
2018-09-01T04:50:59.206Z,22.36
2018-09-01T04:51:30.379Z,22.45
2018-09-01T04:52:01.550Z,22.52
2018-09-01T04:52:32.733Z,22.64
2018-09-01T04:53:03.847Z,22.68
2018-09-01T04:53:35.010Z,22.75
2018-09-01T04:54:06.192Z,22.75
2018-09-01T04:54:37.412Z,22.87
2018-09-01T04:55:08.592Z,22.92
2018-09-01T04:55:39.760Z,23.05
2018-09-01T04:56:10.929Z,23.17
2018-09-01T04:56:42.035Z,23.28
2018-09-01T04:57:13.163Z,23.35
2018-09-01T04:57:44.287Z,23.38
2018-09-01T04:58:15.427Z,23.42
2018-09-01T04:58:46.535Z,23.50
2018-09-01T04:59:17.655Z,23.58
2018-09-01T04:59:48.808Z,23.66
2018-09-01T05:00:19.920Z,23.64
2018-09-01T05:00:51.124Z,23.57
2018-09-01T05:01:22.299Z,23.63
2018-09-01T05:01:53.449Z,23.70
2018-09-01T05:02:24.585Z,23.77
2018-09-01T05:02:55.702Z,23.86
2018-09-01T05:03:26.903Z,23.96
2018-09-01T05:03:58.064Z,24.04
2018-09-01T05:04:29.233Z,24.07
2018-09-01T05:05:00.443Z,24.16
2018-09-01T05:05:31.719Z,24.18
2018-09-01T05:06:02.949Z,24.18
2018-09-01T05:06:34.160Z,24.23
2018-09-01T05:07:05.342Z,24.27
2018-09-01T05:07:36.517Z,24.25
2018-09-01T05:08:07.746Z,24.21
2018-09-01T05:08:38.920Z,24.21
2018-09-01T05:09:10.044Z,24.28
2018-09-01T05:09:41.229Z,24.40
2018-09-01T05:10:12.348Z,24.48
2018-09-01T05:10:43.515Z,24.55
2018-09-01T05:11:14.685Z,24.64
2018-09-01T05:11:45.907Z,24.71
2018-09-01T05:12:17.115Z,24.76
2018-09-01T05:12:48.244Z,24.79
2018-09-01T05:13:19.415Z,24.85
2018-09-01T05:13:50.538Z,24.91
2018-09-01T05:14:21.767Z,24.97
2018-09-01T05:14:52.889Z,25.00
2018-09-01T05:15:24.015Z,25.06
2018-09-01T05:15:55.714Z,25.13
2018-09-01T05:16:26.819Z,25.21
2018-09-01T05:16:57.997Z,25.29
2018-09-01T05:17:29.161Z,25.31
2018-09-01T05:18:00.332Z,25.23
2018-09-01T05:18:31.460Z,25.30
2018-09-01T05:19:02.632Z,25.34
2018-09-01T05:19:33.792Z,25.36
2018-09-01T05:20:04.945Z,25.37
2018-09-01T05:20:36.116Z,25.45
2018-09-01T05:21:07.228Z,25.46
2018-09-01T05:21:38.443Z,25.49
2018-09-01T05:22:09.563Z,25.49
2018-09-01T05:22:40.720Z,25.47
2018-09-01T05:23:11.897Z,25.25
2018-09-01T05:23:43.028Z,25.52
2018-09-01T05:24:14.205Z,25.41
2018-09-01T05:24:45.326Z,25.40
2018-09-01T05:25:16.436Z,25.29
2018-09-01T05:25:47.557Z,25.21
2018-09-01T05:26:18.746Z,25.19
2018-09-01T05:26:49.919Z,25.22
2018-09-01T05:27:21.110Z,25.28
2018-09-01T05:27:52.351Z,25.32
2018-09-01T05:28:23.464Z,25.21
2018-09-01T05:28:54.634Z,25.10
2018-09-01T05:29:25.804Z,25.11
2018-09-01T05:29:56.997Z,25.04
2018-09-01T05:30:28.185Z,25.09
2018-09-01T05:30:59.348Z,25.15
2018-09-01T05:31:30.574Z,25.22
2018-09-01T05:32:01.707Z,25.21
2018-09-01T05:32:32.885Z,25.18
2018-09-01T05:33:04.152Z,24.97
2018-09-01T05:33:35.280Z,25.00
2018-09-01T05:34:06.509Z,24.96
2018-09-01T05:34:37.729Z,24.89
2018-09-01T05:35:08.897Z,24.75
2018-09-01T05:35:40.085Z,24.78
2018-09-01T05:36:11.270Z,24.76
2018-09-01T05:36:42.472Z,24.75
2018-09-01T05:37:13.541Z,24.75
2018-09-01T05:37:44.720Z,24.39
2018-09-01T05:38:15.844Z,24.51
2018-09-01T05:38:46.959Z,24.57
2018-09-01T05:39:18.128Z,24.58
2018-09-01T05:39:49.347Z,24.73
2018-09-01T05:40:20.456Z,24.82
2018-09-01T05:40:51.696Z,24.85
2018-09-01T05:41:22.892Z,24.89
2018-09-01T05:41:54.096Z,24.93
2018-09-01T05:42:25.284Z,24.97
2018-09-01T05:42:56.404Z,25.00
2018-09-01T05:43:27.629Z,25.13
2018-09-01T05:43:58.818Z,25.20
2018-09-01T05:44:30.057Z,25.01
2018-09-01T05:45:01.216Z,25.06
2018-09-01T05:45:32.388Z,25.07
2018-09-01T05:46:03.513Z,25.04
2018-09-01T05:46:34.691Z,25.08
2018-09-01T05:47:05.812Z,25.02
2018-09-01T05:47:36.989Z,25.10
2018-09-01T05:48:08.114Z,25.16
2018-09-01T05:48:39.241Z,25.18
2018-09-01T05:49:10.436Z,25.22
2018-09-01T05:49:41.650Z,25.24
2018-09-01T05:50:12.771Z,25.24
2018-09-01T05:50:44.057Z,25.08
2018-09-01T05:51:15.167Z,25.10
2018-09-01T05:51:46.280Z,25.12
2018-09-01T05:52:17.401Z,25.19
2018-09-01T05:52:48.524Z,25.22
2018-09-01T05:53:19.753Z,25.10
2018-09-01T05:53:50.994Z,24.98
2018-09-01T05:54:22.176Z,24.91
2018-09-01T05:54:53.347Z,24.73
2018-09-01T05:55:24.555Z,24.71
2018-09-01T05:55:55.791Z,24.75
2018-09-01T05:56:26.985Z,24.62
2018-09-01T05:56:58.174Z,24.64
2018-09-01T05:57:29.312Z,24.69
2018-09-01T05:58:00.437Z,24.65
2018-09-01T05:58:31.564Z,24.72
2018-09-01T05:59:02.745Z,24.67
2018-09-01T05:59:33.897Z,24.63
2018-09-01T06:00:05.105Z,24.64
2018-09-01T06:00:36.337Z,24.62
2018-09-01T06:01:07.510Z,24.61
2018-09-01T06:01:38.631Z,24.61
2018-09-01T06:02:09.748Z,24.56
2018-09-01T06:02:40.862Z,24.49
2018-09-01T06:03:11.991Z,24.46
2018-09-01T06:03:43.161Z,24.44
2018-09-01T06:04:14.389Z,24.41
2018-09-01T06:04:45.570Z,24.38
2018-09-01T06:05:16.741Z,24.34
2018-09-01T06:05:47.904Z,24.38
2018-09-01T06:06:19.106Z,24.39
2018-09-01T06:06:50.236Z,24.33
2018-09-01T06:07:21.364Z,24.29
2018-09-01T06:07:52.475Z,24.29
2018-09-01T06:08:23.650Z,24.26
2018-09-01T06:08:54.831Z,24.30
2018-09-01T06:09:26.064Z,24.32
2018-09-01T06:09:57.256Z,24.28
2018-09-01T06:10:28.368Z,24.31
2018-09-01T06:10:59.489Z,24.39
2018-09-01T06:11:30.604Z,24.47
2018-09-01T06:12:01.778Z,24.49
2018-09-01T06:12:32.969Z,24.51
2018-09-01T06:13:04.093Z,24.50
2018-09-01T06:13:35.270Z,24.56
2018-09-01T06:14:06.537Z,24.56
2018-09-01T06:14:37.722Z,24.61
2018-09-01T06:15:08.852Z,24.65
2018-09-01T06:15:40.008Z,24.66
2018-09-01T06:16:11.240Z,24.67
2018-09-01T06:16:42.373Z,24.69
2018-09-01T06:17:13.493Z,24.73
2018-09-01T06:17:44.833Z,24.75
2018-09-01T06:18:15.839Z,24.81
2018-09-01T06:18:47.020Z,24.84
2018-09-01T06:19:18.297Z,24.93
2018-09-01T06:19:49.352Z,24.95
2018-09-01T06:20:20.527Z,24.91
2018-09-01T06:20:51.686Z,24.89
2018-09-01T06:21:22.803Z,24.92
2018-09-01T06:21:53.968Z,24.94
2018-09-01T06:22:25.104Z,24.98
2018-09-01T06:22:56.223Z,24.95
2018-09-01T06:23:27.346Z,24.91
2018-09-01T06:23:58.587Z,24.81
2018-09-01T06:24:29.691Z,24.85
2018-09-01T06:25:00.856Z,24.87
2018-09-01T06:25:31.966Z,24.90
2018-09-01T06:26:03.178Z,24.95
2018-09-01T06:26:34.363Z,24.90
2018-09-01T06:27:05.613Z,24.93
2018-09-01T06:27:36.736Z,24.99
2018-09-01T06:28:07.877Z,25.03
2018-09-01T06:28:39.013Z,24.99
2018-09-01T06:29:10.172Z,24.93
2018-09-01T06:29:41.350Z,24.92
2018-09-01T06:30:12.532Z,24.96
2018-09-01T06:30:43.657Z,25.02
2018-09-01T06:31:14.777Z,25.07
2018-09-01T06:31:45.950Z,25.05
2018-09-01T06:32:17.084Z,25.10
2018-09-01T06:32:48.342Z,25.10
2018-09-01T06:33:19.500Z,25.19
2018-09-01T06:33:50.676Z,25.22
2018-09-01T06:34:21.842Z,25.34
2018-09-01T06:34:53.024Z,25.38
2018-09-01T06:35:24.212Z,25.37
2018-09-01T06:35:55.448Z,25.39
2018-09-01T06:36:26.579Z,25.42
2018-09-01T06:36:57.772Z,25.45
2018-09-01T06:37:28.969Z,25.50
2018-09-01T06:38:00.128Z,25.51
2018-09-01T06:38:31.313Z,25.52
2018-09-01T06:39:02.494Z,25.58
2018-09-01T06:39:33.634Z,25.61
2018-09-01T06:40:04.765Z,25.68
2018-09-01T06:40:35.992Z,25.68
2018-09-01T06:41:07.221Z,25.66